createdAt,value
2022-11-14T00:00:30.284Z,9.55
2022-11-14T00:03:15.441Z,9.35
2022-11-14T00:06:00.285Z,9.21
2022-11-14T00:08:45.116Z,9.06
2022-11-14T00:11:30.032Z,8.72
2022-11-14T00:14:14.771Z,8.87
2022-11-14T00:16:59.681Z,8.74
2022-11-14T00:19:44.508Z,8.99
2022-11-14T00:22:29.433Z,9.00
2022-11-14T00:25:14.240Z,8.94
2022-11-14T00:27:59.672Z,8.99
2022-11-14T00:30:48.172Z,9.03
2022-11-14T00:33:33.407Z,9.10
2022-11-14T00:36:18.360Z,9.11
2022-11-14T00:39:03.942Z,9.12
2022-11-14T00:41:49.192Z,9.17
2022-11-14T00:44:34.172Z,9.12
2022-11-14T00:47:19.442Z,9.07
2022-11-14T00:50:05.004Z,9.03
2022-11-14T00:52:49.789Z,8.98
2022-11-14T00:55:34.881Z,8.92
2022-11-14T00:58:19.973Z,8.69
2022-11-14T01:01:05.151Z,8.75
2022-11-14T01:03:50.845Z,8.89
2022-11-14T01:06:35.733Z,8.98
2022-11-14T01:09:20.869Z,8.98
2022-11-14T01:12:05.677Z,8.95
2022-11-14T01:14:50.895Z,8.78
2022-11-14T01:17:35.783Z,8.85
2022-11-14T01:20:20.761Z,8.99
2022-11-14T01:23:07.655Z,8.95
2022-11-14T01:25:52.890Z,8.78
2022-11-14T01:28:38.384Z,8.70
2022-11-14T01:31:24.379Z,8.79
2022-11-14T01:34:09.772Z,8.65
2022-11-14T01:36:54.721Z,8.65
2022-11-14T01:39:39.868Z,8.76
2022-11-14T01:42:27.334Z,8.75
2022-11-14T01:45:31.454Z,9.10
2022-11-14T01:48:25.456Z,9.18
2022-11-14T01:51:28.533Z,9.05
2022-11-14T01:54:34.752Z,9.08
2022-11-14T01:57:33.457Z,9.10
2022-11-14T02:00:18.787Z,9.08
2022-11-14T02:03:04.107Z,8.93
2022-11-14T02:05:49.783Z,8.92
2022-11-14T02:08:35.176Z,8.89
2022-11-14T02:11:20.303Z,8.99
2022-11-14T02:14:06.037Z,9.29
2022-11-14T02:17:07.708Z,9.02
2022-11-14T02:20:04.809Z,8.82
2022-11-14T02:22:50.370Z,8.80
2022-11-14T02:25:35.424Z,8.71
2022-11-14T02:28:21.653Z,8.60
2022-11-14T02:31:06.933Z,8.94
2022-11-14T02:33:51.604Z,8.70
2022-11-14T02:36:36.423Z,8.72
2022-11-14T02:39:21.269Z,8.79
2022-11-14T02:42:06.285Z,8.69
2022-11-14T02:44:51.161Z,8.82
2022-11-14T02:47:36.258Z,8.81
2022-11-14T02:50:21.196Z,8.97
2022-11-14T02:53:06.153Z,9.13
2022-11-14T02:55:51.366Z,8.85
2022-11-14T02:58:36.094Z,9.04
2022-11-14T03:01:21.764Z,9.00
2022-11-14T03:04:07.225Z,8.93
2022-11-14T03:06:52.255Z,8.77
2022-11-14T03:09:37.477Z,8.78
2022-11-14T03:12:22.485Z,8.78
2022-11-14T03:15:07.750Z,8.79
2022-11-14T03:17:52.785Z,8.76
2022-11-14T03:20:37.741Z,8.82
2022-11-14T03:23:22.521Z,8.75
2022-11-14T03:26:08.716Z,8.76
2022-11-14T03:28:55.287Z,8.60
2022-11-14T03:31:40.166Z,8.72
2022-11-14T03:34:25.144Z,8.67
2022-11-14T03:37:09.991Z,8.56
2022-11-14T03:39:55.321Z,8.62
2022-11-14T03:42:40.186Z,8.60
2022-11-14T03:45:24.933Z,8.61
2022-11-14T03:48:10.043Z,8.70
2022-11-14T03:50:55.218Z,8.70
2022-11-14T03:53:40.074Z,8.38
2022-11-14T03:56:24.893Z,8.54
2022-11-14T03:59:10.046Z,8.80
2022-11-14T04:01:54.932Z,8.85
2022-11-14T04:04:39.948Z,8.79
2022-11-14T04:07:24.833Z,8.66
2022-11-14T04:10:09.762Z,8.74
2022-11-14T04:12:55.121Z,8.73
2022-11-14T04:15:40.420Z,8.69
2022-11-14T04:18:26.031Z,8.70
2022-11-14T04:21:10.795Z,8.61
2022-11-14T04:23:55.669Z,8.76
2022-11-14T04:26:40.432Z,8.67
2022-11-14T04:29:25.316Z,8.70
2022-11-14T04:32:10.185Z,8.80
2022-11-14T04:34:56.457Z,8.77
2022-11-14T04:37:41.805Z,8.68
2022-11-14T04:40:26.542Z,8.70
2022-11-14T04:43:11.597Z,8.85
2022-11-14T04:45:56.529Z,8.98
2022-11-14T04:48:41.701Z,8.89
2022-11-14T04:51:26.987Z,8.97
2022-11-14T04:54:11.877Z,8.97
2022-11-14T04:56:56.760Z,9.15
2022-11-14T04:59:41.476Z,9.04
2022-11-14T05:02:26.215Z,8.95
2022-11-14T05:05:11.083Z,8.89
2022-11-14T05:07:56.063Z,8.79
2022-11-14T05:10:44.735Z,8.76
2022-11-14T05:13:29.966Z,8.85
2022-11-14T05:16:16.899Z,8.94
2022-11-14T05:19:02.124Z,8.72
2022-11-14T05:21:46.926Z,8.84
2022-11-14T05:24:31.799Z,8.95
2022-11-14T05:27:16.645Z,8.79
2022-11-14T05:30:01.677Z,8.70
2022-11-14T05:32:46.577Z,8.75
2022-11-14T05:35:31.560Z,8.67
2022-11-14T05:38:16.404Z,8.63
2022-11-14T05:41:05.756Z,8.65
2022-11-14T05:43:50.620Z,8.73
2022-11-14T05:46:35.429Z,8.81
2022-11-14T05:49:22.070Z,8.68
2022-11-14T05:52:07.776Z,8.57
2022-11-14T05:54:52.687Z,8.40
2022-11-14T05:57:37.957Z,8.48
2022-11-14T06:00:23.041Z,8.62
2022-11-14T06:03:08.003Z,8.72
2022-11-14T06:05:52.956Z,8.64
2022-11-14T06:08:38.273Z,9.25
2022-11-14T06:11:23.378Z,8.95
2022-11-14T06:14:10.945Z,8.95
2022-11-14T06:16:56.194Z,8.93
2022-11-14T06:19:41.002Z,9.05
2022-11-14T06:22:25.876Z,8.88
2022-11-14T06:25:10.723Z,8.78
2022-11-14T06:27:55.677Z,9.00
2022-11-14T06:30:41.406Z,9.00
2022-11-14T06:33:27.163Z,9.03
2022-11-14T06:36:12.929Z,9.00
2022-11-14T06:38:57.810Z,9.13
2022-11-14T06:41:42.838Z,9.24
2022-11-14T06:44:30.643Z,9.19
2022-11-14T06:47:16.486Z,9.08
2022-11-14T06:50:01.813Z,9.13
2022-11-14T06:52:46.710Z,8.75
2022-11-14T06:55:31.684Z,8.91
2022-11-14T06:58:16.748Z,8.84
2022-11-14T07:01:10.722Z,8.82
2022-11-14T07:03:58.681Z,9.08
2022-11-14T07:06:43.743Z,9.16
2022-11-14T07:09:28.537Z,8.96
2022-11-14T07:12:13.406Z,9.03
2022-11-14T07:14:58.477Z,9.28
2022-11-14T07:17:43.476Z,9.40
2022-11-14T07:20:28.102Z,9.51
2022-11-14T07:23:13.224Z,9.82
2022-11-14T07:26:02.145Z,9.51
2022-11-14T07:28:52.272Z,9.35
2022-11-14T07:31:38.590Z,9.80
2022-11-14T07:34:23.493Z,9.97
2022-11-14T07:37:08.786Z,9.93
2022-11-14T07:39:53.689Z,10.06
2022-11-14T07:42:38.616Z,10.11
2022-11-14T07:45:23.709Z,10.04
2022-11-14T07:48:08.657Z,9.93
2022-11-14T07:50:53.656Z,9.84
2022-11-14T07:53:38.867Z,9.79
2022-11-14T07:56:25.970Z,9.70
2022-11-14T07:59:10.824Z,10.09
2022-11-14T08:01:55.991Z,10.07
2022-11-14T08:04:41.921Z,10.11
2022-11-14T08:07:27.052Z,10.20
2022-11-14T08:10:14.142Z,9.95
2022-11-14T08:13:25.192Z,9.92
2022-11-14T08:16:12.046Z,9.99
2022-11-14T08:18:58.121Z,9.82
2022-11-14T08:21:43.932Z,9.91
2022-11-14T08:24:28.879Z,10.06
2022-11-14T08:27:13.807Z,10.11
2022-11-14T08:29:58.913Z,10.03
2022-11-14T08:32:43.773Z,10.36
2022-11-14T08:35:29.532Z,10.17
2022-11-14T08:38:14.744Z,10.33
2022-11-14T08:41:01.620Z,10.43
2022-11-14T08:43:46.467Z,10.70
2022-11-14T08:46:31.485Z,10.54
2022-11-14T08:49:16.600Z,10.42
2022-11-14T08:52:01.566Z,10.56
2022-11-14T08:54:46.777Z,10.42
2022-11-14T08:57:32.094Z,10.96
2022-11-14T09:00:17.442Z,10.50
2022-11-14T09:03:07.450Z,10.62
2022-11-14T09:05:53.031Z,10.71
2022-11-14T09:08:37.928Z,11.00
2022-11-14T09:11:22.882Z,12.72
2022-11-14T09:14:07.605Z,12.84
2022-11-14T09:16:52.561Z,12.59
2022-11-14T09:19:37.420Z,12.84
2022-11-14T09:22:22.343Z,12.65
2022-11-14T09:25:07.625Z,13.09
2022-11-14T09:27:52.717Z,12.94
2022-11-14T09:30:38.057Z,14.16
2022-11-14T09:33:23.023Z,14.04
2022-11-14T09:36:09.316Z,13.34
2022-11-14T09:38:54.544Z,13.01
2022-11-14T09:41:45.533Z,14.30
2022-11-14T09:44:40.942Z,14.24
2022-11-14T09:47:41.323Z,15.49
2022-11-14T09:50:28.736Z,15.64
2022-11-14T09:53:20.082Z,14.37
2022-11-14T09:56:05.410Z,14.57
2022-11-14T09:58:50.607Z,14.11
2022-11-14T10:01:35.635Z,14.21
2022-11-14T10:04:26.605Z,14.31
2022-11-14T10:07:14.575Z,14.18
2022-11-14T10:10:22.744Z,14.64
2022-11-14T10:13:10.652Z,15.51
2022-11-14T10:16:05.924Z,15.70
2022-11-14T10:19:00.318Z,14.88
2022-11-14T10:21:55.979Z,14.75
2022-11-14T10:24:50.339Z,14.24
2022-11-14T10:27:43.039Z,14.39
2022-11-14T10:30:43.947Z,14.29
2022-11-14T10:33:44.018Z,13.23
2022-11-14T10:36:29.256Z,13.26
2022-11-14T10:39:26.862Z,13.88
2022-11-14T10:42:14.433Z,13.77
2022-11-14T10:45:17.087Z,13.41
2022-11-14T10:48:17.112Z,14.24
2022-11-14T10:51:05.863Z,13.90
2022-11-14T10:54:09.641Z,14.24
2022-11-14T10:56:57.399Z,13.27
2022-11-14T10:59:43.484Z,12.99
2022-11-14T11:02:47.088Z,12.88
2022-11-14T11:05:44.241Z,14.21
2022-11-14T11:08:48.098Z,14.64
2022-11-14T11:11:33.209Z,16.14
2022-11-14T11:14:19.289Z,16.61
2022-11-14T11:17:21.946Z,16.44
2022-11-14T11:20:22.403Z,16.24
2022-11-14T11:23:18.367Z,16.79
2022-11-14T11:26:09.145Z,16.84
2022-11-14T11:29:02.449Z,16.25
2022-11-14T11:31:47.441Z,16.78
2022-11-14T11:34:33.078Z,16.43
2022-11-14T11:37:20.729Z,16.01
2022-11-14T11:40:06.955Z,16.44
2022-11-14T11:43:40.601Z,16.78
2022-11-14T11:46:18.528Z,16.00
2022-11-14T11:49:11.095Z,16.11
2022-11-14T11:51:58.392Z,16.30
2022-11-14T11:54:50.753Z,16.27
2022-11-14T11:57:38.692Z,16.57
2022-11-14T12:00:23.972Z,16.47
2022-11-14T12:03:14.066Z,16.61
2022-11-14T12:05:59.462Z,16.73
2022-11-14T12:09:01.874Z,16.30
2022-11-14T12:11:51.362Z,16.48
2022-11-14T12:14:36.462Z,17.12
2022-11-14T12:17:30.875Z,16.81
2022-11-14T12:20:35.743Z,16.58
2022-11-14T12:23:20.854Z,17.35
2022-11-14T12:26:25.221Z,17.13
2022-11-14T12:29:40.379Z,16.99
2022-11-14T12:32:31.934Z,17.30
2022-11-14T12:35:23.043Z,16.72
2022-11-14T12:38:14.801Z,16.81
2022-11-14T12:41:00.990Z,16.83
2022-11-14T12:43:47.471Z,16.87
2022-11-14T12:46:52.202Z,16.61
2022-11-14T12:49:52.791Z,16.66
2022-11-14T12:52:43.823Z,16.90
2022-11-14T12:55:28.809Z,16.21
2022-11-14T12:58:32.533Z,16.51
2022-11-14T13:01:27.131Z,15.62
2022-11-14T13:04:21.821Z,16.31
2022-11-14T13:07:36.250Z,15.86
2022-11-14T13:10:31.630Z,15.82
2022-11-14T13:13:35.982Z,16.38
2022-11-14T13:16:44.280Z,16.15
2022-11-14T13:19:48.184Z,15.76
2022-11-14T13:22:38.825Z,15.95
2022-11-14T13:25:24.409Z,16.10
2022-11-14T13:28:28.583Z,16.42
2022-11-14T13:31:16.918Z,15.61
2022-11-14T13:34:21.994Z,15.43
2022-11-14T13:37:16.829Z,15.10
2022-11-14T13:40:04.859Z,14.89
2022-11-14T13:42:55.528Z,15.48
2022-11-14T13:45:59.050Z,15.30
2022-11-14T13:48:58.524Z,15.00
2022-11-14T13:51:44.393Z,14.70
2022-11-14T13:54:29.869Z,14.57
2022-11-14T13:57:28.511Z,14.56
2022-11-14T14:00:20.430Z,14.79
2022-11-14T14:03:25.353Z,14.35
2022-11-14T14:06:13.084Z,14.28
2022-11-14T14:09:04.875Z,14.20
2022-11-14T14:12:02.990Z,14.08
2022-11-14T14:14:48.042Z,13.67
2022-11-14T14:17:42.036Z,13.54
2022-11-14T14:20:27.173Z,13.78
2022-11-14T14:23:28.835Z,13.59
2022-11-14T14:26:21.336Z,13.77
2022-11-14T14:29:19.329Z,13.65
2022-11-14T14:32:14.603Z,13.33
2022-11-14T14:35:00.678Z,13.38
2022-11-14T14:37:50.323Z,13.18
2022-11-14T14:40:37.220Z,13.44
2022-11-14T14:43:31.884Z,13.20
2022-11-14T14:46:25.217Z,12.91
2022-11-14T14:49:10.398Z,12.66
2022-11-14T14:51:58.533Z,12.57
2022-11-14T14:54:53.672Z,12.55
2022-11-14T14:57:39.087Z,12.38
2022-11-14T15:00:29.614Z,12.54
2022-11-14T15:03:14.674Z,12.37
2022-11-14T15:06:01.260Z,12.18
2022-11-14T15:08:46.574Z,12.19
2022-11-14T15:11:32.905Z,12.03
2022-11-14T15:14:20.746Z,11.98
2022-11-14T15:17:06.297Z,11.68
2022-11-14T15:19:52.786Z,11.54
2022-11-14T15:22:39.214Z,11.27
2022-11-14T15:25:24.722Z,11.29
2022-11-14T15:28:20.975Z,11.08
2022-11-14T15:31:06.080Z,10.94
2022-11-14T15:34:05.438Z,11.07
2022-11-14T15:37:05.713Z,11.23
2022-11-14T15:39:51.040Z,10.97
2022-11-14T15:42:36.175Z,11.01
2022-11-14T15:45:25.122Z,10.96
2022-11-14T15:48:15.684Z,10.78
2022-11-14T15:51:00.490Z,10.60
2022-11-14T15:53:49.060Z,10.63
2022-11-14T15:56:34.279Z,10.66
2022-11-14T15:59:19.344Z,10.88
2022-11-14T16:02:11.299Z,11.13
2022-11-14T16:04:57.870Z,11.14
2022-11-14T16:07:43.357Z,11.08
2022-11-14T16:10:28.621Z,11.17
2022-11-14T16:13:13.589Z,11.10
2022-11-14T16:15:58.453Z,11.09
2022-11-14T16:18:43.400Z,11.10
2022-11-14T16:21:28.530Z,11.13
2022-11-14T16:24:18.475Z,11.00
2022-11-14T16:27:03.352Z,11.02
2022-11-14T16:29:48.292Z,11.07
2022-11-14T16:32:33.571Z,11.21
2022-11-14T16:35:26.300Z,11.20
2022-11-14T16:38:13.092Z,11.24
2022-11-14T16:41:00.207Z,11.27
2022-11-14T16:43:45.146Z,11.55
2022-11-14T16:46:30.366Z,11.89
2022-11-14T16:49:15.846Z,11.92
2022-11-14T16:52:05.484Z,11.72
2022-11-14T16:54:50.370Z,11.39
2022-11-14T16:57:37.115Z,11.46
2022-11-14T17:00:22.848Z,11.33
2022-11-14T17:03:08.069Z,11.03
2022-11-14T17:05:53.335Z,11.06
2022-11-14T17:08:38.736Z,11.07
2022-11-14T17:11:24.066Z,11.01
2022-11-14T17:14:08.997Z,10.96
2022-11-14T17:16:56.041Z,10.90
2022-11-14T17:19:46.125Z,10.93
2022-11-14T17:22:31.414Z,11.01
2022-11-14T17:25:16.305Z,11.01
2022-11-14T17:28:01.472Z,11.09
2022-11-14T17:30:46.403Z,11.32
2022-11-14T17:33:31.496Z,11.20
2022-11-14T17:36:17.374Z,11.04
2022-11-14T17:39:02.733Z,11.12
2022-11-14T17:41:48.116Z,11.08
2022-11-14T17:44:33.094Z,11.13
2022-11-14T17:47:18.156Z,11.17
2022-11-14T17:50:03.533Z,11.02
2022-11-14T17:52:48.764Z,10.99
2022-11-14T17:55:34.170Z,11.02
2022-11-14T17:58:19.031Z,11.11
2022-11-14T18:01:08.926Z,11.00
2022-11-14T18:03:55.793Z,10.98
2022-11-14T18:06:40.721Z,11.09
2022-11-14T18:09:26.945Z,11.17
2022-11-14T18:12:12.183Z,10.98
2022-11-14T18:14:57.212Z,11.11
2022-11-14T18:17:42.350Z,11.10
2022-11-14T18:20:27.452Z,11.06
2022-11-14T18:23:12.765Z,11.12
2022-11-14T18:25:57.840Z,10.97
2022-11-14T18:28:42.661Z,11.11
2022-11-14T18:31:28.329Z,10.95
2022-11-14T18:34:13.675Z,10.74
2022-11-14T18:36:58.921Z,10.78
2022-11-14T18:39:43.637Z,11.06
2022-11-14T18:42:28.628Z,10.86
2022-11-14T18:45:13.543Z,10.41
2022-11-14T18:47:58.481Z,10.58
2022-11-14T18:50:43.490Z,10.68
2022-11-14T18:53:32.887Z,10.44
2022-11-14T18:56:19.807Z,10.26
2022-11-14T18:59:05.605Z,10.27
2022-11-14T19:01:51.000Z,10.42
2022-11-14T19:04:36.204Z,10.55
2022-11-14T19:07:20.954Z,10.66
2022-11-14T19:10:06.522Z,10.63
2022-11-14T19:12:51.762Z,10.68
2022-11-14T19:15:36.904Z,10.59
2022-11-14T19:18:22.348Z,10.57
2022-11-14T19:21:07.572Z,10.62
2022-11-14T19:23:54.601Z,10.58
2022-11-14T19:26:39.771Z,10.68
2022-11-14T19:29:25.578Z,10.71
2022-11-14T19:32:10.928Z,10.60
2022-11-14T19:34:55.859Z,10.76
2022-11-14T19:37:41.264Z,10.79
2022-11-14T19:40:26.322Z,10.80
2022-11-14T19:43:11.506Z,10.65
2022-11-14T19:46:00.424Z,10.70
2022-11-14T19:48:45.272Z,10.61
2022-11-14T19:51:31.050Z,10.51
2022-11-14T19:54:16.209Z,10.73
2022-11-14T19:57:01.182Z,10.59
2022-11-14T19:59:46.069Z,10.49
2022-11-14T20:02:31.280Z,10.39
2022-11-14T20:05:16.264Z,10.28
2022-11-14T20:08:01.069Z,10.36
2022-11-14T20:10:59.470Z,10.38
2022-11-14T20:13:44.812Z,10.44
2022-11-14T20:16:31.113Z,10.51
2022-11-14T20:19:16.743Z,10.55
2022-11-14T20:22:01.662Z,10.56
2022-11-14T20:24:46.926Z,10.64
2022-11-14T20:27:31.625Z,10.37
2022-11-14T20:30:16.637Z,10.26
2022-11-14T20:33:05.056Z,10.30
2022-11-14T20:35:50.034Z,10.37
2022-11-14T20:38:35.250Z,10.42
2022-11-14T20:41:21.003Z,10.39
2022-11-14T20:44:06.120Z,10.31
2022-11-14T20:46:51.473Z,10.25
2022-11-14T20:49:36.601Z,10.12
2022-11-14T20:52:21.822Z,10.01
2022-11-14T20:55:11.626Z,10.28
2022-11-14T20:57:57.298Z,10.28
2022-11-14T21:00:42.384Z,10.15
2022-11-14T21:03:27.648Z,10.39
2022-11-14T21:06:13.330Z,10.19
2022-11-14T21:08:58.352Z,9.97
2022-11-14T21:11:43.302Z,10.10
2022-11-14T21:14:28.375Z,10.06
2022-11-14T21:17:13.618Z,10.10
2022-11-14T21:19:58.997Z,10.00
2022-11-14T21:22:44.429Z,10.13
2022-11-14T21:25:29.649Z,9.96
2022-11-14T21:28:14.720Z,9.67
2022-11-14T21:31:00.845Z,9.80
2022-11-14T21:33:46.795Z,9.89
2022-11-14T21:36:47.511Z,9.70
2022-11-14T21:39:32.906Z,9.75
2022-11-14T21:42:18.811Z,9.36
2022-11-14T21:45:04.291Z,9.34
2022-11-14T21:47:49.329Z,9.27
2022-11-14T21:50:34.316Z,9.20
2022-11-14T21:53:19.524Z,9.12
2022-11-14T21:56:11.360Z,9.26
2022-11-14T21:59:12.551Z,9.38
2022-11-14T22:02:16.489Z,9.23
2022-11-14T22:05:01.949Z,9.30
2022-11-14T22:07:47.104Z,9.16
2022-11-14T22:10:32.536Z,9.11
2022-11-14T22:13:17.857Z,9.15
2022-11-14T22:16:06.187Z,8.97
2022-11-14T22:18:54.623Z,8.85
2022-11-14T22:21:39.790Z,9.01
2022-11-14T22:24:24.907Z,8.76
2022-11-14T22:27:09.837Z,8.66
2022-11-14T22:29:54.726Z,8.83
2022-11-14T22:32:40.164Z,8.74
2022-11-14T22:35:25.125Z,8.91
2022-11-14T22:38:10.574Z,8.98
2022-11-14T22:40:56.470Z,8.63
2022-11-14T22:43:41.769Z,8.66
2022-11-14T22:46:27.615Z,8.71
2022-11-14T22:49:16.030Z,8.73
2022-11-14T22:52:03.701Z,8.82
2022-11-14T22:54:48.523Z,8.90
2022-11-14T22:57:33.665Z,8.92
2022-11-14T23:00:18.773Z,8.71
2022-11-14T23:03:04.134Z,8.89
2022-11-14T23:05:49.623Z,8.74
2022-11-14T23:08:34.854Z,8.79
2022-11-14T23:11:21.311Z,8.97
2022-11-14T23:14:06.456Z,8.84
2022-11-14T23:16:51.469Z,9.04
2022-11-14T23:19:36.209Z,9.03
2022-11-14T23:22:21.091Z,9.02
2022-11-14T23:25:06.106Z,9.09
2022-11-14T23:27:51.357Z,9.03
2022-11-14T23:30:36.418Z,9.14
2022-11-14T23:33:21.825Z,8.87
2022-11-14T23:36:07.200Z,8.73
2022-11-14T23:38:53.248Z,8.85
2022-11-14T23:41:38.570Z,9.11
2022-11-14T23:44:23.417Z,9.09
2022-11-14T23:47:08.181Z,9.06
2022-11-14T23:49:53.000Z,8.97
2022-11-14T23:52:37.929Z,8.97
2022-11-14T23:55:22.742Z,8.92
2022-11-14T23:58:08.087Z,8.79
